Aeroporto :
LOGIN :

Iscrizione | Disclaimer

   EN    FR    IT 

 










Sommario :    VFR   VFR Marginale   IFR   IFR Intensivo   IFR Molto Intensivo
Visibilità : 
Base nubi : 
>= 8 km
>= 3000ft
5 / 8 km
1000 / 3000 ft
1500m / 5 km
500 / 1000 ft
800 / 1500m
200 / 500 ft
< 800m
< 200 ft
Simboli :   Temporali  Nebbia  Neve Forte  Precipitazioni Forti  Vento > 20 kt
SIGMETs :   Varie  Temporali  Ghiacco  Turbolenza  Onda orograficha  Ceneri Vulcaniche







- Altitudine del aeroporto : 20 ft


EBFN - Koksijde

ULTIMO METAR :
  • 211125Z 14007KT 7000 FEW250 04/00 Q1016 WHT WHT BECMG BLU

METARs OBSOLETI :
  • 211025Z 13007KT 5000 BR FEW250 03/00 Q1016 WHT WHT
  • 210933Z 14007KT 3900 BR FEW011 02/M00 Q1015 GRN GRN BECMG WHT
  • 210825Z 12005KT 1900 BR BKN011 SCT250 00/M01 Q1014 YLO YLO BECMG GRN

TAF TAF EBFN
Valido dal 21 a 10 ore il 21 a 19 ore UTC


210841Z 2110/2119 13006KT 8000 BR FEW160 BKN210
TEMPO 2110/2115 6000
TEMPO 2110/2112 3000 BR SCT010
BECMG 2115/2117 09006KT 6000 BKN012
Nessun NOTAM noto per questo aeroporto.



MetMap, La meteo Aeronautica in un colpo d'occhio ! - Copyright ORBIFLY Dicembre 2007 - Disclaimer

ORBIFLY MET'MAP TEAM :

Programmazione e sviluppo : Alexandra Zaïnal
Concezione e sviluppo : Baudouin d'Aumeries
Co-Programmazione e sviluppo : Marc-Olivier Méhu
Supporto tecnico e logistico : Manuel Goepfert
Aiuto per la traduzione : Arnaldo La Scala

Contatto : metmap@orbifly.com




FONTI E CREDITI :

   NOAA